Stateline, NV (89449)

3:46 PM PST on February 14, 2016 (GMT -0800)
Lower Kingsbury Grade | | Change Station
CLOSE
Current Station
Personal Weather Station
Location: Stateline, NV
Elevation: 6424 ft
Nearby Weather Stations

Elev 6424 ft 38.97 °N, 119.93 °W | Updated 16 seconds ago

Partly Cloudy
Partly Cloudy
51.1 °F
Feels Like 51.1 °F
N
2.7
Wind Variable Wind from West
Gusts 4.9 mph

Today
High -- | Low -- °F
--% Chance of Precip.
Yesterday
High -- | Low -- °F
Precip. -- in
Pressure 30.32 in
Visibility 10.0 miles
Clouds Clear
Dew Point 34 °F
Humidity 53%
Rainfall 0.00 in
Snow Depth Not available.
6:52 AM 5:35 PM
Waxing Crescent, 46% visible
METAR KTVL 142253Z AUTO 02013G21KT 10SM CLR 11/01 A3036 RMK AO2 SLP268 T01060006
Pressure 30.32 in
Visibility 10.0 miles
Clouds Clear
Dew Point 34 °F
Humidity 53%
Rainfall 0.00 in
Snow Depth Not available.
6:52 AM 5:35 PM
Waxing Crescent, 46% visible
METAR KTVL 142253Z AUTO 02013G21KT 10SM CLR 11/01 A3036 RMK AO2 SLP268 T01060006

10-Day Weather Forecast

Almanac

Astronomy

Feb. 14, 2016 Rise Set
Actual Time
Civil Twilight
Nautical Twilight
Astronomical Twilight
Moon
Length of Visible Light
Length of Day
Tomorrow will be .
, % of the Moon is Illuminated

Today's Extremes

State Highs State Lows

Community

WunderPhotos

Upload Photos

1,892,929 photos uploaded!

WunderBlog® & News

Nearby

Air Quality

  Air Quality AQ Index Pollutant
Not available.

Snow Depth

Station Depth Elevation

Earthquake Activity

City Distance Mag. Time & Date
Minimum magnitude displayed is 2.5.

Coastal Water Temperatures

Place Temperature

Stations

Nearby Weather Stations

Station Location Temp. Windchill Dew Point Humidity Wind Precip. Elev Updated Type
                   

Watches & Warnings

There are currently no watches in effect.